createdAt,value
2023-03-22T00:00:17.151Z,174.15
2023-03-22T00:01:21.956Z,161.77
2023-03-22T00:02:26.772Z,167.35
2023-03-22T00:03:29.590Z,159.00
2023-03-22T00:04:32.189Z,159.15
2023-03-22T00:05:34.973Z,152.05
2023-03-22T00:06:37.024Z,153.48
2023-03-22T00:07:41.348Z,147.30
2023-03-22T00:08:43.604Z,156.25
2023-03-22T00:09:51.007Z,155.25
2023-03-22T00:10:52.835Z,154.68
2023-03-22T00:11:56.955Z,139.57
2023-03-22T00:12:59.785Z,147.75
2023-03-22T00:14:02.594Z,131.10
2023-03-22T00:15:05.023Z,136.23
2023-03-22T00:16:09.524Z,131.77
2023-03-22T00:17:11.696Z,140.45
2023-03-22T00:18:14.578Z,137.70
2023-03-22T00:19:17.417Z,127.28
2023-03-22T00:20:23.577Z,138.35
2023-03-22T00:21:26.462Z,140.02
2023-03-22T00:22:28.451Z,123.75
2023-03-22T00:23:31.301Z,132.43
2023-03-22T00:24:33.115Z,135.98
2023-03-22T00:25:36.418Z,130.05
2023-03-22T00:26:38.292Z,140.88
2023-03-22T00:27:43.328Z,138.63
2023-03-22T00:28:45.642Z,141.20
2023-03-22T00:29:48.407Z,151.88
2023-03-22T00:30:52.654Z,173.00
2023-03-22T00:31:56.045Z,205.85
2023-03-22T00:32:57.945Z,207.35
2023-03-22T00:34:01.433Z,241.55
2023-03-22T00:35:03.758Z,397.52
2023-03-22T00:36:09.266Z,478.17
2023-03-22T00:37:11.079Z,526.92
2023-03-22T00:38:14.022Z,445.08
2023-03-22T00:39:17.922Z,714.83
2023-03-22T00:40:19.855Z,639.60
2023-03-22T00:41:23.802Z,323.13
2023-03-22T00:42:25.649Z,229.90
2023-03-22T00:43:29.778Z,537.70
2023-03-22T00:44:31.937Z,302.70
2023-03-22T00:45:36.269Z,388.20
2023-03-22T00:46:39.102Z,659.05
2023-03-22T00:47:41.096Z,756.47
2023-03-22T00:48:43.922Z,811.95
2023-03-22T00:49:45.861Z,414.77
2023-03-22T00:50:48.828Z,723.63
2023-03-22T00:51:50.821Z,610.25
2023-03-22T00:52:53.658Z,734.95
2023-03-22T00:53:56.812Z,461.40
2023-03-22T00:54:59.842Z,367.35
2023-03-22T00:56:01.735Z,676.85
2023-03-22T00:57:12.960Z,569.05
2023-03-22T00:58:14.941Z,600.47
2023-03-22T00:59:19.047Z,1003.80
2023-03-22T01:00:21.560Z,590.60
2023-03-22T01:01:24.547Z,909.80
2023-03-22T01:02:29.671Z,817.92
2023-03-22T01:03:33.314Z,487.85
2023-03-22T01:04:35.719Z,741.30
2023-03-22T01:05:40.507Z,874.22
2023-03-22T01:06:42.711Z,866.28
2023-03-22T01:07:45.826Z,551.58
2023-03-22T01:08:50.719Z,492.75
2023-03-22T01:09:53.629Z,414.98
2023-03-22T01:10:55.566Z,516.47
2023-03-22T01:11:59.220Z,448.98
2023-03-22T01:13:01.147Z,348.42
2023-03-22T01:14:04.148Z,619.17
2023-03-22T01:15:08.527Z,531.22
2023-03-22T01:16:12.693Z,631.88
2023-03-22T01:17:14.973Z,415.80
2023-03-22T01:18:17.855Z,535.35
2023-03-22T01:19:20.140Z,599.15
2023-03-22T01:20:23.091Z,529.63
2023-03-22T01:21:25.055Z,532.00
2023-03-22T01:22:28.416Z,401.33
2023-03-22T01:23:30.551Z,479.73
2023-03-22T01:24:33.504Z,436.10
2023-03-22T01:25:35.624Z,529.72
2023-03-22T01:26:40.087Z,226.00
2023-03-22T01:27:41.948Z,556.40
2023-03-22T01:28:44.984Z,486.10
2023-03-22T01:29:46.866Z,412.13
2023-03-22T01:30:51.344Z,514.22
2023-03-22T01:31:53.240Z,399.33
2023-03-22T01:32:56.140Z,433.05
2023-03-22T01:33:58.967Z,460.58
2023-03-22T01:35:02.530Z,455.50
2023-03-22T01:36:06.918Z,467.38
2023-03-22T01:37:11.072Z,459.90
2023-03-22T01:38:16.858Z,549.53
2023-03-22T01:39:27.916Z,504.25
2023-03-22T01:40:33.565Z,605.47
2023-03-22T01:41:37.554Z,511.55
2023-03-22T01:42:46.662Z,605.38
2023-03-22T01:44:09.077Z,727.38
2023-03-22T01:45:32.536Z,655.30
2023-03-22T01:46:36.995Z,719.15
2023-03-22T01:47:39.595Z,656.38
2023-03-22T01:48:46.636Z,720.58
2023-03-22T01:49:50.201Z,283.10
2023-03-22T01:51:03.282Z,488.23
2023-03-22T01:52:12.364Z,524.63
2023-03-22T01:53:31.923Z,504.58
2023-03-22T01:54:35.956Z,623.13
2023-03-22T01:55:49.706Z,473.67
2023-03-22T01:57:00.373Z,893.35
2023-03-22T01:58:10.649Z,473.52
2023-03-22T01:59:21.957Z,1102.13
2023-03-22T02:00:42.217Z,558.90
2023-03-22T02:02:19.157Z,448.63
2023-03-22T02:03:43.352Z,464.45
2023-03-22T02:04:50.889Z,500.95
2023-03-22T02:05:53.606Z,616.35
2023-03-22T02:06:59.867Z,553.28
2023-03-22T02:08:06.484Z,443.10
2023-03-22T02:09:26.128Z,317.58
2023-03-22T02:10:28.597Z,664.17
2023-03-22T02:11:41.559Z,872.50
2023-03-22T02:13:07.501Z,918.03
2023-03-22T02:14:32.668Z,713.92
2023-03-22T02:16:10.928Z,801.53
2023-03-22T02:17:30.950Z,505.35
2023-03-22T02:18:47.862Z,183.82
2023-03-22T02:20:19.275Z,685.30
2023-03-22T02:21:39.131Z,566.65
2023-03-22T02:23:01.767Z,322.98
2023-03-22T02:24:43.907Z,618.13
2023-03-22T02:26:03.665Z,547.10
2023-03-22T02:27:28.981Z,583.20
2023-03-22T02:28:38.863Z,365.42
2023-03-22T02:29:45.284Z,282.23
2023-03-22T02:31:16.412Z,321.45
2023-03-22T02:32:41.290Z,324.90
2023-03-22T02:34:06.170Z,302.35
2023-03-22T02:35:56.715Z,164.63
2023-03-22T02:37:27.036Z,413.92
2023-03-22T02:40:01.734Z,372.95
2023-03-22T02:41:10.864Z,388.55
2023-03-22T02:42:35.752Z,243.77
2023-03-22T02:43:46.155Z,473.65
2023-03-22T02:44:56.226Z,401.63
2023-03-22T02:46:04.662Z,213.50
2023-03-22T02:47:09.725Z,125.13
2023-03-22T02:48:15.572Z,144.55
2023-03-22T02:49:22.936Z,121.68
2023-03-22T02:50:28.525Z,268.83
2023-03-22T02:51:34.335Z,233.98
2023-03-22T02:52:39.251Z,356.88
2023-03-22T02:53:46.499Z,183.43
2023-03-22T02:54:51.607Z,330.63
2023-03-22T02:55:58.657Z,244.45
2023-03-22T02:57:05.616Z,191.38
2023-03-22T02:58:13.603Z,193.25
2023-03-22T02:59:17.738Z,135.88
2023-03-22T03:00:21.354Z,175.98
2023-03-22T03:01:25.909Z,169.40
2023-03-22T03:02:29.797Z,277.10
2023-03-22T03:03:32.950Z,222.82
2023-03-22T03:04:38.477Z,148.15
2023-03-22T03:05:42.985Z,203.48
2023-03-22T03:06:47.513Z,276.13
2023-03-22T03:07:53.395Z,487.92
2023-03-22T03:09:02.552Z,308.60
2023-03-22T03:10:05.723Z,404.10
2023-03-22T03:11:10.644Z,457.17
2023-03-22T03:12:14.599Z,259.73
2023-03-22T03:13:19.373Z,340.92
2023-03-22T03:14:23.476Z,326.92
2023-03-22T03:15:26.946Z,424.52
2023-03-22T03:16:34.507Z,350.55
2023-03-22T03:17:54.366Z,434.40
2023-03-22T03:18:59.994Z,471.52
2023-03-22T03:20:19.996Z,573.90
2023-03-22T03:21:30.242Z,490.60
2023-03-22T03:22:41.042Z,493.48
2023-03-22T03:23:49.504Z,555.65
2023-03-22T03:24:57.328Z,612.50
2023-03-22T03:26:02.427Z,654.95
2023-03-22T03:27:08.497Z,598.60
2023-03-22T03:28:14.689Z,609.47
2023-03-22T03:29:22.381Z,587.15
2023-03-22T03:30:27.386Z,663.92
2023-03-22T03:31:36.145Z,625.60
2023-03-22T03:32:42.531Z,578.05
2023-03-22T03:33:51.729Z,611.88
2023-03-22T03:34:57.268Z,624.63
2023-03-22T03:36:02.676Z,642.85
2023-03-22T03:37:08.211Z,815.90
2023-03-22T03:38:13.366Z,485.00
2023-03-22T03:39:16.422Z,683.30
2023-03-22T03:40:25.127Z,703.78
2023-03-22T03:41:28.511Z,688.25
2023-03-22T03:42:32.914Z,739.92
2023-03-22T03:43:34.941Z,747.75
2023-03-22T03:44:38.159Z,700.00
2023-03-22T03:45:40.294Z,610.83
2023-03-22T03:46:43.172Z,619.15
2023-03-22T03:47:47.042Z,652.47
2023-03-22T03:48:51.041Z,727.72
2023-03-22T03:49:52.781Z,727.30
2023-03-22T03:50:57.263Z,445.00
2023-03-22T03:52:00.033Z,504.75
2023-03-22T03:53:03.389Z,555.90
2023-03-22T03:54:05.432Z,565.47
2023-03-22T03:55:09.271Z,490.75
2023-03-22T03:56:11.309Z,764.58
2023-03-22T03:57:20.314Z,533.22
2023-03-22T03:58:23.555Z,487.13
2023-03-22T03:59:26.312Z,558.53
2023-03-22T04:00:29.294Z,728.75
2023-03-22T04:01:52.310Z,648.30
2023-03-22T04:02:59.779Z,578.78
2023-03-22T04:04:19.341Z,590.10
2023-03-22T04:05:24.838Z,795.75
2023-03-22T04:06:27.810Z,812.80
2023-03-22T04:07:34.883Z,743.35
2023-03-22T04:08:37.700Z,485.48
2023-03-22T04:09:40.517Z,739.85
2023-03-22T04:10:54.972Z,747.00
2023-03-22T04:11:57.690Z,642.75
2023-03-22T04:13:00.870Z,784.10
2023-03-22T04:14:04.573Z,841.78
2023-03-22T04:15:08.579Z,779.58
2023-03-22T04:16:10.558Z,777.95
2023-03-22T04:17:14.068Z,775.78
2023-03-22T04:18:15.816Z,695.95
2023-03-22T04:19:19.115Z,552.42
2023-03-22T04:20:21.465Z,568.83
2023-03-22T04:21:24.232Z,470.73
2023-03-22T04:22:34.640Z,401.10
2023-03-22T04:23:38.393Z,691.35
2023-03-22T04:24:41.265Z,758.20
2023-03-22T04:25:50.534Z,669.47
2023-03-22T04:27:03.419Z,589.67
2023-03-22T04:28:26.263Z,380.58
2023-03-22T04:29:32.150Z,374.52
2023-03-22T04:30:51.501Z,250.18
2023-03-22T04:32:11.687Z,227.93
2023-03-22T04:33:17.777Z,217.98
2023-03-22T04:34:43.543Z,182.10
2023-03-22T04:35:50.507Z,207.15
2023-03-22T04:36:54.369Z,238.73
2023-03-22T04:38:02.548Z,319.08
2023-03-22T04:39:08.717Z,302.85
2023-03-22T04:40:17.275Z,203.38
2023-03-22T04:41:46.550Z,157.20
2023-03-22T04:42:48.852Z,151.05
2023-03-22T04:44:03.445Z,139.52
2023-03-22T04:45:09.658Z,136.25
2023-03-22T04:46:14.258Z,134.98
2023-03-22T04:47:23.641Z,148.90
2023-03-22T04:48:28.360Z,168.32
2023-03-22T04:49:34.403Z,176.25
2023-03-22T04:50:36.353Z,153.30
2023-03-22T04:51:40.681Z,163.05
2023-03-22T04:53:06.550Z,127.15
2023-03-22T04:54:08.445Z,143.48
2023-03-22T04:55:14.445Z,136.55
2023-03-22T04:56:18.286Z,137.00
2023-03-22T04:57:22.595Z,146.48
2023-03-22T04:58:24.842Z,150.80
2023-03-22T04:59:28.421Z,179.52
2023-03-22T05:00:32.578Z,179.38
2023-03-22T05:01:37.577Z,184.23
2023-03-22T05:02:46.629Z,183.90
2023-03-22T05:03:59.417Z,200.25
2023-03-22T05:05:02.050Z,157.30
2023-03-22T05:06:12.914Z,167.85
2023-03-22T05:07:23.281Z,180.77
2023-03-22T05:08:31.884Z,161.00
2023-03-22T05:09:33.779Z,173.43
2023-03-22T05:10:40.962Z,159.07
2023-03-22T05:11:43.100Z,137.13
2023-03-22T05:13:01.781Z,161.10
2023-03-22T05:14:07.729Z,142.10
2023-03-22T05:15:12.118Z,139.75
2023-03-22T05:16:16.548Z,139.68
2023-03-22T05:17:26.434Z,137.20
2023-03-22T05:18:32.760Z,126.90
2023-03-22T05:19:36.404Z,126.47
2023-03-22T05:20:38.852Z,127.18
2023-03-22T05:21:58.216Z,136.55
2023-03-22T05:23:10.915Z,169.25
2023-03-22T05:24:15.653Z,127.43
2023-03-22T05:25:21.588Z,122.65
2023-03-22T05:26:26.444Z,109.00
2023-03-22T05:27:31.738Z,120.47
2023-03-22T05:28:53.718Z,118.22
2023-03-22T05:30:21.724Z,116.32
2023-03-22T05:31:35.460Z,114.47
2023-03-22T05:32:59.968Z,122.13
2023-03-22T05:34:03.673Z,120.82
2023-03-22T05:35:08.740Z,113.82
2023-03-22T05:36:16.804Z,110.63
2023-03-22T05:37:38.291Z,120.30
2023-03-22T05:38:41.325Z,113.00
2023-03-22T05:39:44.168Z,111.55
2023-03-22T05:40:46.362Z,109.43
2023-03-22T05:41:49.220Z,115.47
2023-03-22T05:42:51.146Z,107.50
2023-03-22T05:43:58.589Z,97.20
2023-03-22T05:45:00.440Z,100.93
2023-03-22T05:46:06.322Z,102.25
2023-03-22T05:47:22.112Z,105.40
2023-03-22T05:48:33.636Z,99.95
2023-03-22T05:49:36.487Z,106.85
2023-03-22T05:50:40.939Z,98.85
2023-03-22T05:51:43.639Z,104.00
2023-03-22T05:52:49.067Z,91.30
2023-03-22T05:54:12.343Z,94.28
2023-03-22T05:55:23.415Z,89.38
2023-03-22T05:56:31.267Z,99.65
2023-03-22T05:57:41.184Z,90.15
2023-03-22T05:58:44.874Z,86.82
2023-03-22T05:59:53.793Z,89.25
2023-03-22T06:01:06.410Z,91.70
2023-03-22T06:02:24.944Z,88.07
2023-03-22T06:03:28.539Z,86.65
2023-03-22T06:04:52.067Z,86.85
2023-03-22T06:05:54.839Z,83.45
2023-03-22T06:07:08.540Z,79.72
2023-03-22T06:08:20.364Z,79.10
2023-03-22T06:09:23.185Z,79.28
2023-03-22T06:10:28.738Z,88.25
2023-03-22T06:11:33.921Z,77.05
2023-03-22T06:12:36.687Z,72.00
2023-03-22T06:13:47.997Z,74.45
2023-03-22T06:14:50.779Z,66.40
2023-03-22T06:16:14.226Z,70.63
2023-03-22T06:17:18.143Z,72.65
2023-03-22T06:18:25.421Z,71.50
2023-03-22T06:19:35.290Z,73.18
2023-03-22T06:20:41.627Z,66.72
2023-03-22T06:21:50.424Z,74.22
2023-03-22T06:22:54.103Z,74.07
2023-03-22T06:23:56.567Z,70.72
2023-03-22T06:25:01.184Z,70.65
2023-03-22T06:26:11.807Z,65.55
2023-03-22T06:27:17.807Z,62.92
2023-03-22T06:28:21.004Z,69.75
2023-03-22T06:29:28.730Z,68.25
2023-03-22T06:30:34.847Z,64.43
2023-03-22T06:32:00.584Z,64.70
2023-03-22T06:33:05.151Z,60.67
2023-03-22T06:34:12.311Z,60.60
2023-03-22T06:35:17.010Z,60.72
2023-03-22T06:36:22.130Z,58.65
2023-03-22T06:37:40.534Z,60.00
2023-03-22T06:38:43.083Z,60.88
2023-03-22T06:39:46.175Z,55.70
2023-03-22T06:40:48.534Z,56.05
2023-03-22T06:41:52.231Z,54.50
2023-03-22T06:42:54.531Z,56.97
2023-03-22T06:43:59.532Z,54.17
2023-03-22T06:45:16.934Z,53.45
2023-03-22T06:46:21.521Z,46.88
2023-03-22T06:47:33.743Z,52.15
2023-03-22T06:48:36.149Z,53.25
2023-03-22T06:49:47.985Z,49.58
2023-03-22T06:50:56.361Z,50.53
2023-03-22T06:52:06.154Z,48.42
2023-03-22T06:53:10.288Z,52.08
2023-03-22T06:54:13.254Z,49.67
2023-03-22T06:55:16.622Z,46.55
2023-03-22T06:56:18.475Z,48.97
2023-03-22T06:57:26.441Z,49.90
2023-03-22T06:58:28.316Z,45.97
2023-03-22T06:59:31.824Z,44.67
2023-03-22T07:00:34.331Z,50.42
2023-03-22T07:01:37.198Z,45.00
2023-03-22T07:02:39.379Z,48.30
2023-03-22T07:03:52.776Z,51.30
2023-03-22T07:04:58.654Z,47.95
2023-03-22T07:06:02.436Z,46.40
2023-03-22T07:07:07.151Z,50.28
2023-03-22T07:08:10.937Z,47.28
2023-03-22T07:09:18.708Z,49.13
2023-03-22T07:10:23.219Z,49.65
2023-03-22T07:11:26.869Z,43.45
2023-03-22T07:12:35.035Z,54.03
2023-03-22T07:13:45.136Z,45.15
2023-03-22T07:14:54.481Z,46.20
2023-03-22T07:16:32.503Z,44.15
2023-03-22T07:17:37.025Z,41.70
2023-03-22T07:18:40.651Z,45.05
2023-03-22T07:19:43.095Z,40.47
2023-03-22T07:20:48.818Z,46.72
2023-03-22T07:21:51.203Z,43.70
2023-03-22T07:22:54.436Z,42.70
2023-03-22T07:23:58.528Z,46.97
2023-03-22T07:25:08.286Z,43.90
2023-03-22T07:26:10.809Z,46.90
2023-03-22T07:27:18.153Z,50.92
2023-03-22T07:28:20.325Z,42.60
2023-03-22T07:29:23.084Z,48.95
2023-03-22T07:30:25.259Z,48.22
2023-03-22T07:31:29.129Z,48.15
2023-03-22T07:32:36.133Z,42.08
2023-03-22T07:33:42.381Z,43.85
2023-03-22T07:34:44.909Z,43.58
2023-03-22T07:35:53.167Z,42.20
2023-03-22T07:36:57.015Z,40.22
2023-03-22T07:38:00.982Z,38.28
2023-03-22T07:39:07.410Z,38.00
2023-03-22T07:40:15.633Z,35.05
2023-03-22T07:41:19.415Z,38.17
2023-03-22T07:42:42.214Z,36.85
2023-03-22T07:44:07.749Z,40.25
2023-03-22T07:45:36.737Z,34.65
2023-03-22T07:46:58.307Z,35.42
2023-03-22T07:48:06.840Z,31.70
2023-03-22T07:49:28.286Z,29.50
2023-03-22T07:50:38.960Z,33.03
2023-03-22T07:51:43.838Z,31.85
2023-03-22T07:52:47.642Z,30.60
2023-03-22T07:53:50.436Z,28.63
2023-03-22T07:54:53.318Z,34.83
2023-03-22T07:55:56.224Z,25.58
2023-03-22T07:56:58.996Z,31.50
2023-03-22T07:58:01.257Z,29.00
2023-03-22T07:59:04.497Z,27.75
2023-03-22T08:00:10.368Z,28.70
2023-03-22T08:01:32.021Z,24.50
2023-03-22T08:02:50.628Z,26.23
2023-03-22T08:04:11.027Z,29.05
2023-03-22T08:05:22.586Z,27.73
2023-03-22T08:06:32.984Z,26.83
2023-03-22T08:07:37.551Z,29.38
2023-03-22T08:08:41.440Z,28.30
2023-03-22T08:09:43.885Z,28.30
2023-03-22T08:10:49.986Z,25.95
2023-03-22T08:11:52.917Z,26.50
2023-03-22T08:12:54.689Z,26.65
2023-03-22T08:14:01.193Z,29.83
2023-03-22T08:15:05.749Z,29.30
2023-03-22T08:16:09.990Z,31.08
2023-03-22T08:17:12.243Z,27.42
2023-03-22T08:18:15.498Z,27.38
2023-03-22T08:19:19.824Z,26.77
2023-03-22T08:20:26.805Z,25.40
2023-03-22T08:21:32.796Z,27.92
2023-03-22T08:22:36.532Z,25.08
2023-03-22T08:23:59.331Z,24.95
2023-03-22T08:25:23.461Z,24.60
2023-03-22T08:26:28.084Z,23.80
2023-03-22T08:27:32.842Z,23.98
2023-03-22T08:28:36.507Z,24.75
2023-03-22T08:29:38.386Z,21.73
2023-03-22T08:30:41.601Z,23.55
2023-03-22T08:31:44.802Z,22.75
2023-03-22T08:32:47.606Z,21.08
2023-03-22T08:33:50.455Z,25.25
2023-03-22T08:34:52.877Z,21.08
2023-03-22T08:36:06.472Z,23.23
2023-03-22T08:37:11.635Z,23.13
2023-03-22T08:38:15.581Z,21.85
2023-03-22T08:39:25.439Z,21.42
2023-03-22T08:40:48.719Z,20.63
2023-03-22T08:41:54.772Z,21.83
2023-03-22T08:43:00.676Z,20.55
2023-03-22T08:44:04.486Z,20.88
2023-03-22T08:45:11.221Z,22.15
2023-03-22T08:46:20.484Z,18.73
2023-03-22T08:47:24.085Z,19.20
2023-03-22T08:48:32.117Z,20.65
2023-03-22T08:49:42.080Z,19.95
2023-03-22T08:50:58.539Z,20.25
2023-03-22T08:52:11.490Z,20.88
2023-03-22T08:53:32.925Z,19.35
2023-03-22T08:54:57.365Z,19.67
2023-03-22T08:56:20.151Z,19.27
2023-03-22T08:57:38.729Z,24.48
2023-03-22T08:58:58.319Z,19.17
2023-03-22T09:00:25.072Z,25.55
2023-03-22T09:01:40.971Z,21.02
2023-03-22T09:02:46.215Z,20.85
2023-03-22T09:03:49.214Z,21.60
2023-03-22T09:04:51.458Z,16.80
2023-03-22T09:05:55.436Z,17.17
2023-03-22T09:06:57.491Z,19.42
2023-03-22T09:08:06.218Z,20.55
2023-03-22T09:09:17.960Z,18.90
2023-03-22T09:10:24.707Z,18.85
2023-03-22T09:11:31.321Z,18.65
2023-03-22T09:12:33.335Z,17.20
2023-03-22T09:13:36.384Z,17.65
2023-03-22T09:14:38.743Z,16.73
2023-03-22T09:15:42.703Z,17.65
2023-03-22T09:16:57.859Z,17.92
2023-03-22T09:18:02.544Z,16.00
2023-03-22T09:19:06.667Z,17.50
2023-03-22T09:20:13.043Z,17.63
2023-03-22T09:21:18.484Z,18.40
2023-03-22T09:22:26.358Z,18.80
2023-03-22T09:23:30.383Z,16.05
2023-03-22T09:24:32.545Z,19.55
2023-03-22T09:25:40.902Z,15.02
2023-03-22T09:26:45.572Z,21.38
2023-03-22T09:27:50.821Z,17.05
2023-03-22T09:28:53.335Z,17.67
2023-03-22T09:29:56.324Z,17.80
2023-03-22T09:31:00.915Z,18.63
2023-03-22T09:32:06.817Z,18.10
2023-03-22T09:33:11.346Z,17.42
2023-03-22T09:34:17.834Z,16.90
2023-03-22T09:35:22.168Z,16.77
2023-03-22T09:36:40.651Z,18.13
2023-03-22T09:37:43.542Z,16.10
2023-03-22T09:38:47.807Z,16.92
2023-03-22T09:39:50.441Z,17.42
2023-03-22T09:41:00.835Z,16.13
2023-03-22T09:42:11.880Z,17.92
2023-03-22T09:43:16.570Z,17.30
2023-03-22T09:44:23.332Z,17.02
2023-03-22T09:45:38.138Z,17.30
2023-03-22T09:46:47.464Z,16.13
2023-03-22T09:47:54.853Z,24.35
2023-03-22T09:48:58.229Z,20.38
2023-03-22T09:50:06.934Z,15.15
2023-03-22T09:51:28.303Z,17.20
2023-03-22T09:52:33.068Z,21.50
2023-03-22T09:53:36.367Z,12.23
2023-03-22T09:54:40.841Z,12.93
2023-03-22T09:55:46.429Z,12.43
2023-03-22T09:56:55.861Z,12.00
2023-03-22T09:58:08.062Z,11.95
2023-03-22T09:59:36.664Z,10.60
2023-03-22T10:00:43.891Z,14.18
2023-03-22T10:01:52.191Z,11.18
2023-03-22T10:02:59.917Z,15.50
2023-03-22T10:04:11.767Z,24.30
2023-03-22T10:05:21.240Z,18.17
2023-03-22T10:06:26.041Z,12.20
2023-03-22T10:07:32.492Z,14.18
2023-03-22T10:08:46.113Z,12.45
2023-03-22T10:09:54.895Z,14.45
2023-03-22T10:10:59.255Z,12.20
2023-03-22T10:12:10.677Z,11.85
2023-03-22T10:13:24.684Z,17.67
2023-03-22T10:14:30.872Z,12.87
2023-03-22T10:15:37.288Z,11.30
2023-03-22T10:16:40.316Z,12.00
2023-03-22T10:17:49.018Z,14.45
2023-03-22T10:18:53.577Z,13.13
2023-03-22T10:19:59.875Z,41.60
2023-03-22T10:21:16.382Z,33.03
2023-03-22T10:22:25.332Z,13.60
2023-03-22T10:23:32.809Z,13.30
2023-03-22T10:24:37.009Z,12.77
2023-03-22T10:25:42.530Z,35.10
2023-03-22T10:26:47.173Z,16.08
2023-03-22T10:27:52.702Z,23.05
2023-03-22T10:29:43.329Z,14.90
2023-03-22T10:30:50.954Z,14.43
2023-03-22T10:31:55.534Z,20.90
2023-03-22T10:33:02.839Z,15.07
2023-03-22T10:34:08.362Z,13.73
2023-03-22T10:35:15.535Z,13.10
2023-03-22T10:36:20.084Z,14.43
2023-03-22T10:37:25.874Z,13.63
2023-03-22T10:38:32.206Z,15.50
2023-03-22T10:39:39.417Z,30.88
2023-03-22T10:40:52.120Z,14.50
2023-03-22T10:41:57.978Z,16.95
2023-03-22T10:44:40.995Z,16.60
2023-03-22T10:45:44.794Z,15.07
2023-03-22T10:46:50.618Z,15.52
2023-03-22T10:47:58.063Z,15.88
2023-03-22T10:49:02.194Z,14.25
2023-03-22T10:50:08.237Z,13.40
2023-03-22T10:51:19.654Z,13.57
2023-03-22T10:52:37.029Z,15.48
2023-03-22T10:53:45.496Z,20.45
2023-03-22T10:54:51.476Z,14.55
2023-03-22T10:55:55.528Z,13.05
2023-03-22T10:57:14.344Z,21.95
2023-03-22T10:58:19.641Z,23.80
2023-03-22T10:59:48.573Z,14.65
2023-03-22T11:00:59.722Z,15.83
2023-03-22T11:02:03.025Z,15.27
2023-03-22T11:03:07.595Z,17.57
2023-03-22T11:04:13.982Z,18.87
2023-03-22T11:05:23.046Z,18.40
2023-03-22T11:06:29.841Z,18.43
2023-03-22T11:07:35.580Z,19.63
2023-03-22T11:08:41.687Z,14.13
2023-03-22T11:09:44.609Z,16.43
2023-03-22T11:10:59.117Z,13.90
2023-03-22T11:12:03.147Z,17.07
2023-03-22T11:13:21.629Z,14.53
2023-03-22T11:14:31.861Z,13.97
2023-03-22T11:15:43.138Z,13.43
2023-03-22T11:16:57.284Z,24.67
2023-03-22T11:18:04.155Z,13.63
2023-03-22T11:19:08.380Z,13.07
2023-03-22T11:20:21.180Z,18.47
2023-03-22T11:21:30.903Z,13.93
2023-03-22T11:22:36.647Z,17.40
2023-03-22T11:23:43.026Z,13.50
2023-03-22T11:24:50.441Z,15.60
2023-03-22T11:25:56.788Z,17.70
2023-03-22T11:27:08.581Z,25.50
2023-03-22T11:28:18.343Z,13.00
2023-03-22T11:29:23.162Z,14.53
2023-03-22T11:30:27.052Z,14.40
2023-03-22T11:31:50.129Z,18.30
2023-03-22T11:33:03.498Z,14.67
2023-03-22T11:34:18.159Z,23.80
2023-03-22T11:35:23.398Z,20.50
2023-03-22T11:36:27.491Z,17.90
2023-03-22T11:37:40.881Z,16.63
2023-03-22T11:38:45.660Z,17.23
2023-03-22T11:40:05.135Z,16.87
2023-03-22T11:41:09.290Z,17.37
2023-03-22T11:42:20.311Z,17.80
2023-03-22T11:43:23.983Z,15.43
2023-03-22T11:44:29.679Z,15.97
2023-03-22T11:45:33.304Z,16.73
2023-03-22T11:46:38.013Z,15.93
2023-03-22T11:47:40.346Z,70.23
2023-03-22T11:48:44.668Z,25.50
2023-03-22T11:49:54.074Z,19.73
2023-03-22T11:51:06.012Z,17.20
2023-03-22T11:52:12.575Z,16.27
2023-03-22T11:53:17.468Z,18.13
2023-03-22T11:54:31.931Z,15.73
2023-03-22T11:55:35.388Z,19.00
2023-03-22T11:56:42.677Z,14.90
2023-03-22T11:57:50.261Z,14.40
2023-03-22T11:59:00.196Z,13.67
2023-03-22T12:00:11.896Z,13.80
2023-03-22T12:01:19.533Z,16.23
2023-03-22T12:02:26.463Z,13.63
2023-03-22T12:03:32.732Z,15.80
2023-03-22T12:04:39.733Z,20.90
2023-03-22T12:05:44.666Z,16.37
2023-03-22T12:06:57.789Z,21.70
2023-03-22T12:08:08.122Z,19.17
2023-03-22T12:09:23.393Z,29.87
2023-03-22T12:10:33.430Z,12.87
2023-03-22T12:11:41.775Z,10.93
2023-03-22T12:12:56.946Z,36.00
2023-03-22T12:14:06.507Z,35.23
2023-03-22T12:15:15.902Z,31.63
2023-03-22T12:16:24.322Z,20.03
2023-03-22T12:17:33.332Z,13.70
2023-03-22T12:18:43.494Z,12.47
2023-03-22T12:19:56.818Z,11.07
2023-03-22T12:21:00.981Z,26.87
2023-03-22T12:22:03.417Z,13.17
2023-03-22T12:23:13.768Z,10.33
2023-03-22T12:24:28.318Z,27.20
2023-03-22T12:25:34.978Z,11.00
2023-03-22T12:26:38.173Z,9.87
2023-03-22T12:27:50.065Z,9.23
2023-03-22T12:29:01.944Z,9.70
2023-03-22T12:30:08.726Z,10.83
2023-03-22T12:31:17.387Z,7.27
2023-03-22T12:32:25.337Z,7.70
2023-03-22T12:34:01.937Z,15.83
2023-03-22T12:35:17.229Z,18.63
2023-03-22T12:36:23.413Z,10.43
2023-03-22T12:37:30.579Z,7.37
2023-03-22T12:38:41.283Z,7.77
2023-03-22T12:39:46.769Z,7.70
2023-03-22T12:40:53.815Z,7.37
2023-03-22T12:42:00.766Z,7.93
2023-03-22T12:43:12.042Z,8.00
2023-03-22T12:44:38.009Z,7.57
2023-03-22T12:46:33.098Z,10.73
2023-03-22T12:50:33.468Z,6.67
2023-03-22T12:53:42.413Z,5.37
2023-03-22T12:55:04.845Z,5.10
2023-03-22T12:56:10.983Z,4.93
2023-03-22T12:57:14.988Z,6.33
2023-03-22T12:58:22.274Z,4.60
2023-03-22T12:59:28.949Z,5.73
2023-03-22T13:00:38.160Z,4.60
2023-03-22T13:01:48.214Z,6.20
2023-03-22T13:02:57.750Z,6.17
2023-03-22T13:04:01.399Z,24.10
2023-03-22T13:05:09.405Z,22.43
2023-03-22T13:06:36.025Z,5.60
2023-03-22T13:07:55.926Z,5.07
2023-03-22T13:09:16.149Z,4.30
2023-03-22T13:10:50.118Z,6.73
2023-03-22T13:12:27.593Z,7.33
2023-03-22T13:13:44.710Z,7.53
2023-03-22T13:15:01.393Z,4.37
2023-03-22T13:16:26.828Z,4.97
2023-03-22T13:17:40.733Z,6.10
2023-03-22T13:19:01.999Z,5.53
2023-03-22T13:20:28.276Z,5.10
2023-03-22T13:21:38.527Z,5.80
2023-03-22T13:23:12.903Z,5.97
2023-03-22T13:24:39.745Z,5.30
2023-03-22T13:26:08.539Z,5.30
2023-03-22T13:27:15.513Z,5.23
2023-03-22T13:28:37.448Z,7.03
2023-03-22T13:29:42.209Z,5.80
2023-03-22T13:30:49.450Z,5.63
2023-03-22T13:31:58.726Z,19.67
2023-03-22T13:33:14.318Z,6.07
2023-03-22T13:34:19.272Z,5.20
2023-03-22T13:35:25.505Z,8.57
2023-03-22T13:36:30.351Z,8.27
2023-03-22T13:37:35.910Z,6.27
2023-03-22T13:38:59.519Z,5.50
2023-03-22T13:40:05.950Z,6.83
2023-03-22T13:41:18.177Z,7.20
2023-03-22T13:42:27.713Z,6.23
2023-03-22T13:43:33.641Z,4.27
2023-03-22T13:44:40.722Z,4.33
2023-03-22T13:46:04.261Z,5.63
2023-03-22T13:47:10.424Z,5.10
2023-03-22T13:48:41.995Z,4.57
2023-03-22T13:49:51.479Z,20.70
2023-03-22T13:50:54.009Z,5.23
2023-03-22T13:52:00.374Z,5.57
2023-03-22T13:53:07.960Z,5.90
2023-03-22T13:54:17.934Z,4.17
2023-03-22T13:55:42.911Z,3.73
2023-03-22T13:56:53.233Z,10.00
2023-03-22T13:57:59.837Z,10.97
2023-03-22T13:59:04.971Z,6.40
2023-03-22T14:00:33.771Z,4.67
2023-03-22T14:01:39.683Z,5.40
2023-03-22T14:02:43.352Z,6.17
2023-03-22T14:03:50.545Z,31.93
2023-03-22T14:04:56.084Z,8.27
2023-03-22T14:06:05.291Z,15.33
2023-03-22T14:07:14.147Z,8.50
2023-03-22T14:08:21.846Z,5.83
2023-03-22T14:09:27.433Z,9.50
2023-03-22T14:10:37.474Z,6.07
2023-03-22T14:11:45.556Z,4.20
2023-03-22T14:12:52.687Z,12.00
2023-03-22T14:13:58.846Z,7.07
2023-03-22T14:15:04.814Z,4.47
2023-03-22T14:16:10.269Z,4.27
2023-03-22T14:17:19.229Z,5.13
2023-03-22T14:18:25.819Z,4.13
2023-03-22T14:19:32.745Z,7.60
2023-03-22T14:20:36.421Z,11.47
